Time;durP1;ratioP1;P1;durP2;ratioP2;P2;SDS_P1;SDS_P2;PMS_P1;PMS_P2;Temp;Humidity;BMP_temperature;BMP_pressure;BME280_temperature;BME280_humidity;BME280_pressure;Samples;Min_cycle;Max_cycle;Signal;HPM_P1;HPM_P2
2022/03/13 00:00:30;;;;;;;19.80;2.08;;;;;;;;;;4994313;28;20573;-81
2022/03/13 00:02:56;;;;;;;16.70;1.58;;;;;;;;;;4977207;28;20254;-83
2022/03/13 00:05:24;;;;;;;6.43;0.65;;;;;;;;;;4972344;28;20030;-82
2022/03/13 00:07:51;;;;;;;5.78;0.40;;;;;;;;;;4959609;28;20030;-84
2022/03/13 00:10:19;;;;;;;10.13;1.10;;;;;;;;;;4973116;28;20023;-83
2022/03/13 00:12:47;;;;;;;18.10;0.80;;;;;;;;;;4959913;28;20066;-83
2022/03/13 00:15:15;;;;;;;7.47;1.17;;;;;;;;;;4972552;28;20039;-83
2022/03/13 00:17:41;;;;;;;14.93;1.33;;;;;;;;;;4937648;28;20030;-84
2022/03/13 00:20:08;;;;;;;33.75;2.80;;;;;;;;;;4969844;28;20491;-86
2022/03/13 00:22:35;;;;;;;21.02;1.75;;;;;;;;;;4984603;28;20110;-84
2022/03/13 00:25:03;;;;;;;15.10;1.52;;;;;;;;;;4965261;28;20113;-83
2022/03/13 00:27:31;;;;;;;12.30;1.45;;;;;;;;;;4987053;28;20035;-81
2022/03/13 00:29:57;;;;;;;21.20;2.03;;;;;;;;;;4972177;28;20133;-85
2022/03/13 00:32:22;;;;;;;24.80;2.85;;;;;;;;;;4957580;28;20027;-84
2022/03/13 00:34:48;;;;;;;23.50;3.28;;;;;;;;;;4972251;28;20307;-81
2022/03/13 00:37:14;;;;;;;37.42;4.20;;;;;;;;;;4968697;28;20530;-82
2022/03/13 00:39:40;;;;;;;57.35;5.53;;;;;;;;;;4970039;28;20037;-83
2022/03/13 00:42:06;;;;;;;54.53;4.63;;;;;;;;;;4972188;28;20093;-83
2022/03/13 00:44:32;;;;;;;34.35;4.47;;;;;;;;;;4967537;28;20031;-83
2022/03/13 00:46:58;;;;;;;38.30;3.50;;;;;;;;;;4960204;28;20047;-82
2022/03/13 00:49:23;;;;;;;39.60;3.47;;;;;;;;;;4917871;28;20062;-81
2022/03/13 00:51:49;;;;;;;39.97;4.35;;;;;;;;;;4948458;28;20035;-83
2022/03/13 00:54:14;;;;;;;52.10;4.70;;;;;;;;;;4917476;29;20109;-81
2022/03/13 00:56:40;;;;;;;48.78;3.67;;;;;;;;;;4935077;28;20031;-84
2022/03/13 00:59:05;;;;;;;59.42;5.80;;;;;;;;;;4935917;28;20126;-82
2022/03/13 01:01:31;;;;;;;40.08;4.00;;;;;;;;;;4948622;28;20492;-83
2022/03/13 01:03:56;;;;;;;27.42;3.10;;;;;;;;;;4930794;28;20101;-82
2022/03/13 01:06:22;;;;;;;31.30;3.92;;;;;;;;;;4935645;28;20042;-81
2022/03/13 01:08:49;;;;;;;45.55;4.32;;;;;;;;;;4938380;28;20128;-81
2022/03/13 01:11:18;;;;;;;31.75;4.70;;;;;;;;;;4930676;28;20151;-83
2022/03/13 01:13:45;;;;;;;23.83;3.22;;;;;;;;;;4946913;28;20031;-82
2022/03/13 01:16:12;;;;;;;47.28;4.00;;;;;;;;;;4943783;28;20481;-82
2022/03/13 01:18:50;;;;;;;39.88;3.67;;;;;;;;;;4941197;28;20122;-82
2022/03/13 01:21:16;;;;;;;59.33;5.50;;;;;;;;;;4956497;28;20023;-81
2022/03/13 01:23:54;;;;;;;47.58;6.75;;;;;;;;;;4931311;28;20070;-80
2022/03/13 01:26:22;;;;;;;51.65;4.68;;;;;;;;;;4933182;28;20039;-81
2022/03/13 01:28:52;;;;;;;50.75;4.40;;;;;;;;;;4948584;28;20090;-83
2022/03/13 01:31:24;;;;;;;42.28;4.40;;;;;;;;;;4948011;28;20107;-84
2022/03/13 01:33:49;;;;;;;58.70;6.55;;;;;;;;;;4944403;28;20086;-80
2022/03/13 01:36:15;;;;;;;54.38;5.93;;;;;;;;;;4932821;29;20515;-83
2022/03/13 01:38:41;;;;;;;51.88;5.40;;;;;;;;;;4950176;28;20038;-83
2022/03/13 01:41:08;;;;;;;39.33;5.10;;;;;;;;;;4932607;29;20066;-81
2022/03/13 01:43:34;;;;;;;41.05;4.75;;;;;;;;;;4944893;28;20027;-82
2022/03/13 01:46:00;;;;;;;61.58;6.25;;;;;;;;;;4947206;28;20031;-81
2022/03/13 01:48:26;;;;;;;45.08;4.55;;;;;;;;;;4947755;28;20045;-81
2022/03/13 01:50:52;;;;;;;50.97;5.18;;;;;;;;;;4943450;28;20134;-81
2022/03/13 01:53:20;;;;;;;25.27;4.72;;;;;;;;;;4929255;28;20028;-81
2022/03/13 01:55:46;;;;;;;46.20;5.13;;;;;;;;;;4946060;28;20582;-82
2022/03/13 01:58:12;;;;;;;45.55;6.28;;;;;;;;;;4944714;28;20032;-80
2022/03/13 02:00:38;;;;;;;49.28;4.97;;;;;;;;;;4912707;29;20035;-82
2022/03/13 02:03:04;;;;;;;59.47;4.90;;;;;;;;;;4943764;28;20515;-81
2022/03/13 02:05:34;;;;;;;46.13;5.35;;;;;;;;;;4945647;28;20023;-82
2022/03/13 02:08:12;;;;;;;45.90;5.03;;;;;;;;;;4928367;28;20190;-82
2022/03/13 02:10:38;;;;;;;68.25;5.82;;;;;;;;;;4947356;28;20031;-83
2022/03/13 02:13:04;;;;;;;47.65;4.68;;;;;;;;;;4948469;28;20035;-82
2022/03/13 02:15:32;;;;;;;50.78;5.43;;;;;;;;;;4929268;29;20061;-82
2022/03/13 02:18:01;;;;;;;42.20;5.88;;;;;;;;;;4929717;28;20035;-81
2022/03/13 02:20:27;;;;;;;42.35;4.60;;;;;;;;;;4943824;28;20530;-82
2022/03/13 02:23:00;;;;;;;31.23;4.63;;;;;;;;;;4948727;28;20035;-81
2022/03/13 02:25:31;;;;;;;35.65;4.22;;;;;;;;;;4945257;28;20456;-82
2022/03/13 02:27:58;;;;;;;55.13;5.35;;;;;;;;;;4942932;29;20752;-82
2022/03/13 02:30:26;;;;;;;46.03;5.22;;;;;;;;;;4928619;28;20118;-81
2022/03/13 02:32:54;;;;;;;66.45;5.50;;;;;;;;;;4944633;28;20138;-82
2022/03/13 02:35:20;;;;;;;64.18;6.28;;;;;;;;;;4931733;29;20125;-82
2022/03/13 02:37:47;;;;;;;49.10;5.57;;;;;;;;;;4900156;28;20416;-85
2022/03/13 02:40:19;;;;;;;50.25;6.40;;;;;;;;;;4948861;28;20463;-81
2022/03/13 02:42:44;;;;;;;56.03;6.15;;;;;;;;;;4943671;28;20114;-83
2022/03/13 02:45:10;;;;;;;59.83;5.80;;;;;;;;;;4913725;28;20130;-83
2022/03/13 02:47:36;;;;;;;39.13;4.63;;;;;;;;;;4951521;28;20073;-82
2022/03/13 02:50:02;;;;;;;37.42;4.03;;;;;;;;;;4965320;28;20752;-85
2022/03/13 02:52:28;;;;;;;53.20;6.35;;;;;;;;;;4966740;28;20058;-84
2022/03/13 02:54:53;;;;;;;54.72;7.20;;;;;;;;;;4969207;28;20032;-84
2022/03/13 02:57:19;;;;;;;66.05;7.10;;;;;;;;;;4953504;28;20522;-84
2022/03/13 02:59:44;;;;;;;68.45;6.47;;;;;;;;;;4950040;28;20034;-85
2022/03/13 03:02:10;;;;;;;58.95;6.10;;;;;;;;;;4953406;28;20113;-80
2022/03/13 03:04:35;;;;;;;36.90;4.63;;;;;;;;;;4964477;28;20097;-83
2022/03/13 03:07:03;;;;;;;45.83;5.95;;;;;;;;;;4948637;28;20035;-83
2022/03/13 03:09:30;;;;;;;58.45;7.15;;;;;;;;;;4965028;28;20035;-81
2022/03/13 03:11:57;;;;;;;46.95;4.55;;;;;;;;;;4971614;28;20061;-80
2022/03/13 03:14:23;;;;;;;40.15;4.47;;;;;;;;;;4967193;28;20411;-83
2022/03/13 03:16:49;;;;;;;67.35;8.13;;;;;;;;;;4976866;28;20502;-84
2022/03/13 03:19:15;;;;;;;57.30;6.93;;;;;;;;;;4960783;28;20074;-82
2022/03/13 03:21:42;;;;;;;68.05;7.18;;;;;;;;;;4964957;28;20081;-83
2022/03/13 03:24:17;;;;;;;67.13;5.85;;;;;;;;;;4970603;28;20552;-84
2022/03/13 03:26:43;;;;;;;32.50;3.58;;;;;;;;;;4964353;28;20027;-84
2022/03/13 03:29:08;;;;;;;41.58;6.25;;;;;;;;;;4981113;28;20097;-81
2022/03/13 03:31:40;;;;;;;60.03;8.02;;;;;;;;;;4966305;28;20122;-83
2022/03/13 03:34:14;;;;;;;50.13;4.35;;;;;;;;;;4966053;28;20039;-81
2022/03/13 03:36:42;;;;;;;39.28;5.07;;;;;;;;;;4963298;28;20046;-82
2022/03/13 03:39:09;;;;;;;38.42;4.60;;;;;;;;;;4977153;28;20042;-81
2022/03/13 03:41:34;;;;;;;52.15;6.00;;;;;;;;;;4968216;28;20027;-83
2022/03/13 03:44:00;;;;;;;58.85;7.30;;;;;;;;;;4963869;28;20045;-82
2022/03/13 03:46:25;;;;;;;60.65;4.72;;;;;;;;;;4971973;28;20053;-81
2022/03/13 03:48:51;;;;;;;41.40;4.75;;;;;;;;;;4964878;28;20053;-82
2022/03/13 03:51:16;;;;;;;44.17;4.50;;;;;;;;;;4980312;28;20035;-83
2022/03/13 03:53:42;;;;;;;45.10;4.18;;;;;;;;;;4947094;28;20094;-82
2022/03/13 03:56:08;;;;;;;38.10;4.20;;;;;;;;;;4954041;28;20031;-83
2022/03/13 03:58:33;;;;;;;39.03;4.30;;;;;;;;;;4982917;28;20058;-80
2022/03/13 04:00:59;;;;;;;45.17;4.68;;;;;;;;;;4968742;28;20444;-82
2022/03/13 04:03:25;;;;;;;58.83;5.80;;;;;;;;;;4955346;28;20041;-82
2022/03/13 04:05:50;;;;;;;42.33;5.55;;;;;;;;;;4980833;28;20045;-81
2022/03/13 04:08:16;;;;;;;80.68;5.68;;;;;;;;;;4980956;28;20046;-82
2022/03/13 04:10:42;;;;;;;49.70;5.35;;;;;;;;;;4971295;28;20073;-83
2022/03/13 04:13:07;;;;;;;39.33;6.13;;;;;;;;;;4962587;28;20031;-81
2022/03/13 04:15:33;;;;;;;57.75;5.57;;;;;;;;;;4968069;28;20069;-81
2022/03/13 04:17:58;;;;;;;51.47;5.70;;;;;;;;;;4968322;28;20097;-82
2022/03/13 04:20:24;;;;;;;73.85;6.45;;;;;;;;;;4983902;28;20034;-82
2022/03/13 04:22:50;;;;;;;62.28;5.20;;;;;;;;;;4966872;28;20038;-82
2022/03/13 04:25:16;;;;;;;63.10;5.35;;;;;;;;;;4952946;28;20039;-81
2022/03/13 04:27:44;;;;;;;61.50;8.25;;;;;;;;;;4969680;28;20054;-82
2022/03/13 04:30:10;;;;;;;54.08;5.55;;;;;;;;;;4967816;28;20034;-81
2022/03/13 04:32:36;;;;;;;67.00;6.00;;;;;;;;;;4971468;28;20034;-83
2022/03/13 04:35:01;;;;;;;55.63;6.60;;;;;;;;;;4968246;28;20026;-79
2022/03/13 04:37:27;;;;;;;59.55;7.03;;;;;;;;;;4952323;28;20039;-81
2022/03/13 04:39:53;;;;;;;49.00;5.70;;;;;;;;;;4966368;28;20026;-82
2022/03/13 04:42:19;;;;;;;66.45;5.72;;;;;;;;;;4985188;28;20534;-81
2022/03/13 04:44:45;;;;;;;65.57;5.80;;;;;;;;;;4953168;28;20113;-81
2022/03/13 04:47:11;;;;;;;60.72;5.13;;;;;;;;;;4951349;28;20515;-79
2022/03/13 04:49:36;;;;;;;47.78;4.18;;;;;;;;;;4970719;28;20050;-81
2022/03/13 04:52:02;;;;;;;44.63;6.50;;;;;;;;;;4953753;28;20102;-83
2022/03/13 04:54:27;;;;;;;60.88;5.45;;;;;;;;;;4971097;28;20027;-85
2022/03/13 04:56:53;;;;;;;50.40;5.32;;;;;;;;;;4983879;28;20030;-80
2022/03/13 04:59:19;;;;;;;39.97;4.28;;;;;;;;;;4967842;28;20514;-83
2022/03/13 05:01:44;;;;;;;42.97;4.80;;;;;;;;;;4968967;28;20050;-83
2022/03/13 05:04:10;;;;;;;48.83;5.63;;;;;;;;;;4965035;28;20038;-83
2022/03/13 05:06:37;;;;;;;54.67;6.93;;;;;;;;;;4951115;28;20086;-81
2022/03/13 05:09:05;;;;;;;49.70;5.38;;;;;;;;;;4969165;28;20136;-82
2022/03/13 05:11:31;;;;;;;51.83;5.75;;;;;;;;;;4969015;28;20027;-82
2022/03/13 05:13:56;;;;;;;56.10;5.55;;;;;;;;;;4970019;28;20035;-82
2022/03/13 05:16:21;;;;;;;52.83;5.35;;;;;;;;;;4965881;28;20035;-83
2022/03/13 05:18:47;;;;;;;38.55;4.88;;;;;;;;;;4951209;28;20030;-83
2022/03/13 05:21:12;;;;;;;43.83;5.18;;;;;;;;;;4959344;28;20170;-83
2022/03/13 05:23:38;;;;;;;49.65;4.45;;;;;;;;;;4967989;28;20026;-82
2022/03/13 05:26:03;;;;;;;46.03;6.25;;;;;;;;;;4973571;28;20421;-82
2022/03/13 05:28:29;;;;;;;38.17;3.75;;;;;;;;;;4969708;28;20031;-83
2022/03/13 05:30:54;;;;;;;50.03;4.47;;;;;;;;;;4969949;28;20495;-82
2022/03/13 05:33:20;;;;;;;40.80;4.65;;;;;;;;;;4969181;28;20254;-83
2022/03/13 05:35:45;;;;;;;52.17;5.32;;;;;;;;;;4966002;28;20094;-82
2022/03/13 05:38:11;;;;;;;44.20;4.15;;;;;;;;;;4968929;28;20041;-83
2022/03/13 05:40:36;;;;;;;55.22;4.25;;;;;;;;;;4971707;28;20466;-82
2022/03/13 05:43:03;;;;;;;31.73;2.80;;;;;;;;;;4982720;28;20062;-83
2022/03/13 05:45:30;;;;;;;37.30;3.75;;;;;;;;;;4974979;28;20035;-83
2022/03/13 05:47:59;;;;;;;21.65;2.70;;;;;;;;;;4967121;28;20055;-83
2022/03/13 05:50:26;;;;;;;33.35;3.58;;;;;;;;;;4965212;28;20046;-82
2022/03/13 05:52:56;;;;;;;20.88;2.42;;;;;;;;;;4965846;28;20027;-82
2022/03/13 05:55:23;;;;;;;14.93;1.80;;;;;;;;;;4967589;28;20034;-82
2022/03/13 05:57:49;;;;;;;14.05;1.73;;;;;;;;;;4978960;28;20112;-84
2022/03/13 06:00:15;;;;;;;13.27;1.17;;;;;;;;;;4985780;28;20132;-81
2022/03/13 06:02:42;;;;;;;22.08;2.40;;;;;;;;;;4964776;28;20098;-79
2022/03/13 06:05:10;;;;;;;24.65;3.08;;;;;;;;;;4967514;28;20326;-81
2022/03/13 06:07:36;;;;;;;12.95;1.80;;;;;;;;;;4965334;28;20133;-81
2022/03/13 06:10:03;;;;;;;31.88;4.55;;;;;;;;;;4967237;28;20142;-80
2022/03/13 06:12:30;;;;;;;32.95;3.80;;;;;;;;;;4968758;28;20030;-80
2022/03/13 06:14:57;;;;;;;26.52;4.43;;;;;;;;;;4982751;28;20018;-79
2022/03/13 06:17:23;;;;;;;30.20;3.05;;;;;;;;;;4976872;28;20070;-82
2022/03/13 06:19:48;;;;;;;26.17;2.42;;;;;;;;;;4969047;28;20057;-82
2022/03/13 06:22:14;;;;;;;26.63;2.92;;;;;;;;;;4968033;28;20042;-81
2022/03/13 06:24:40;;;;;;;22.77;3.35;;;;;;;;;;4965424;28;20055;-82
2022/03/13 06:27:06;;;;;;;36.78;3.72;;;;;;;;;;4950803;28;20034;-83
2022/03/13 06:29:31;;;;;;;32.25;3.03;;;;;;;;;;4965304;28;20986;-80
2022/03/13 06:31:58;;;;;;;22.65;3.28;;;;;;;;;;4967682;28;20035;-81
2022/03/13 06:34:24;;;;;;;25.50;2.45;;;;;;;;;;4967940;28;20034;-82
2022/03/13 06:36:50;;;;;;;36.75;2.20;;;;;;;;;;4951052;28;20642;-82
2022/03/13 06:39:15;;;;;;;31.10;2.67;;;;;;;;;;4981791;28;20035;-81
2022/03/13 06:41:41;;;;;;;25.80;2.95;;;;;;;;;;4969542;28;20109;-81
2022/03/13 06:44:06;;;;;;;35.00;2.88;;;;;;;;;;4950206;28;20047;-80
2022/03/13 06:46:35;;;;;;;26.00;2.33;;;;;;;;;;4971716;28;20502;-82
2022/03/13 06:49:04;;;;;;;23.88;2.60;;;;;;;;;;4950174;28;20031;-81
2022/03/13 06:51:30;;;;;;;30.05;2.85;;;;;;;;;;4963314;28;20033;-83
2022/03/13 06:53:55;;;;;;;22.83;2.78;;;;;;;;;;4967647;28;20035;-81
2022/03/13 06:56:21;;;;;;;35.13;4.63;;;;;;;;;;4961118;28;20038;-80
2022/03/13 06:58:46;;;;;;;21.63;3.78;;;;;;;;;;4963005;28;20054;-81
2022/03/13 07:01:12;;;;;;;35.92;3.20;;;;;;;;;;4967342;28;20569;-81
2022/03/13 07:03:37;;;;;;;27.00;2.70;;;;;;;;;;4967849;28;20023;-81
2022/03/13 07:06:04;;;;;;;23.40;2.47;;;;;;;;;;4961019;28;20051;-82
2022/03/13 07:08:32;;;;;;;34.63;3.20;;;;;;;;;;4949738;28;20042;-81
2022/03/13 07:10:59;;;;;;;21.50;2.50;;;;;;;;;;4964439;28;21470;-80
2022/03/13 07:13:26;;;;;;;19.88;2.08;;;;;;;;;;4978919;28;20062;-84
2022/03/13 07:15:52;;;;;;;40.85;3.47;;;;;;;;;;4982472;28;20045;-83
2022/03/13 07:18:18;;;;;;;32.78;3.28;;;;;;;;;;4952644;28;20108;-83
2022/03/13 07:20:44;;;;;;;45.33;3.45;;;;;;;;;;4965603;28;20066;-80
2022/03/13 07:23:09;;;;;;;24.15;2.83;;;;;;;;;;4955674;28;20041;-81
2022/03/13 07:25:35;;;;;;;34.20;3.10;;;;;;;;;;4978487;28;20027;-83
2022/03/13 07:28:00;;;;;;;25.63;3.85;;;;;;;;;;4966829;28;20085;-80
2022/03/13 07:30:26;;;;;;;31.30;1.98;;;;;;;;;;4952604;28;20031;-83
2022/03/13 07:32:51;;;;;;;40.92;3.70;;;;;;;;;;4949297;28;20038;-80
2022/03/13 07:35:17;;;;;;;28.45;2.45;;;;;;;;;;4964413;28;20045;-82
2022/03/13 07:37:43;;;;;;;23.67;2.10;;;;;;;;;;4968368;28;20057;-85
2022/03/13 07:40:09;;;;;;;22.35;1.75;;;;;;;;;;4981092;28;20038;-82
2022/03/13 07:42:34;;;;;;;16.20;1.63;;;;;;;;;;4936505;28;20101;-84
2022/03/13 07:45:00;;;;;;;12.63;1.02;;;;;;;;;;4964445;28;20029;-80
2022/03/13 07:47:26;;;;;;;11.98;1.55;;;;;;;;;;4968014;28;20050;-81
2022/03/13 07:49:52;;;;;;;6.25;0.82;;;;;;;;;;4983887;28;20094;-82
2022/03/13 07:52:17;;;;;;;14.15;1.15;;;;;;;;;;4964370;28;20403;-82
2022/03/13 07:54:43;;;;;;;12.30;1.40;;;;;;;;;;4981488;28;20034;-81
2022/03/13 07:57:08;;;;;;;14.95;1.88;;;;;;;;;;4968164;28;20034;-82
2022/03/13 07:59:34;;;;;;;6.43;1.13;;;;;;;;;;4969034;28;20034;-81
2022/03/13 08:02:00;;;;;;;9.88;1.65;;;;;;;;;;4968251;28;20042;-80
2022/03/13 08:04:27;;;;;;;6.22;0.40;;;;;;;;;;4963633;28;20511;-79
2022/03/13 08:06:52;;;;;;;7.03;0.75;;;;;;;;;;4963890;28;20487;-81
2022/03/13 08:09:18;;;;;;;3.42;0.47;;;;;;;;;;4962062;28;20035;-80
2022/03/13 08:11:44;;;;;;;6.95;0.73;;;;;;;;;;4967966;28;20030;-81
2022/03/13 08:14:10;;;;;;;7.32;0.75;;;;;;;;;;4968902;28;20031;-81
2022/03/13 08:16:36;;;;;;;13.65;1.08;;;;;;;;;;4964638;28;20069;-81
2022/03/13 08:19:03;;;;;;;5.57;0.70;;;;;;;;;;4965514;28;20038;-81
2022/03/13 08:21:28;;;;;;;9.00;0.52;;;;;;;;;;4966516;28;20035;-81
2022/03/13 08:23:55;;;;;;;7.95;0.73;;;;;;;;;;4946503;28;20419;-81
2022/03/13 08:26:21;;;;;;;10.45;1.00;;;;;;;;;;4965289;28;20038;-82
2022/03/13 08:28:47;;;;;;;8.18;0.80;;;;;;;;;;4949493;28;20776;-82
2022/03/13 08:31:13;;;;;;;12.95;0.77;;;;;;;;;;4954808;28;20129;-82
2022/03/13 08:33:38;;;;;;;7.65;1.30;;;;;;;;;;4969431;28;20067;-81
2022/03/13 08:36:04;;;;;;;8.05;1.38;;;;;;;;;;4935792;28;20057;-81
2022/03/13 08:38:30;;;;;;;5.68;0.55;;;;;;;;;;4967636;28;20010;-79
2022/03/13 08:40:56;;;;;;;9.10;0.60;;;;;;;;;;4968726;28;20031;-80
2022/03/13 08:43:22;;;;;;;8.48;0.80;;;;;;;;;;4968244;28;20027;-82
2022/03/13 08:45:48;;;;;;;7.22;0.30;;;;;;;;;;4968810;28;20057;-81
2022/03/13 08:48:13;;;;;;;9.82;0.50;;;;;;;;;;4954640;28;20078;-82
2022/03/13 08:50:40;;;;;;;2.20;0.10;;;;;;;;;;4953490;28;20039;-81
2022/03/13 08:53:06;;;;;;;1.92;0.20;;;;;;;;;;4969709;28;20045;-80
2022/03/13 08:55:31;;;;;;;3.17;0.57;;;;;;;;;;4967722;28;20503;-81
2022/03/13 08:57:57;;;;;;;4.95;0.30;;;;;;;;;;4966781;28;20049;-82
2022/03/13 09:00:24;;;;;;;5.07;0.20;;;;;;;;;;4972163;28;20122;-82
2022/03/13 09:02:50;;;;;;;1.65;0.28;;;;;;;;;;4963391;28;20031;-82
2022/03/13 09:05:16;;;;;;;3.63;0.30;;;;;;;;;;4968506;28;20023;-81
2022/03/13 09:07:42;;;;;;;3.22;0.20;;;;;;;;;;4967680;28;20031;-81
2022/03/13 09:10:09;;;;;;;2.88;0.20;;;;;;;;;;4981250;28;20046;-80
2022/03/13 09:12:35;;;;;;;10.05;0.50;;;;;;;;;;4969013;28;20506;-80
2022/03/13 09:15:03;;;;;;;2.95;0.30;;;;;;;;;;4967592;28;20035;-82
2022/03/13 09:17:28;;;;;;;6.03;0.57;;;;;;;;;;4968323;28;20031;-81
2022/03/13 09:19:56;;;;;;;2.67;0.30;;;;;;;;;;4953154;28;20124;-82
2022/03/13 09:22:22;;;;;;;3.72;0.93;;;;;;;;;;4967291;28;20030;-81
2022/03/13 09:24:49;;;;;;;8.25;0.32;;;;;;;;;;4967234;28;20097;-82
2022/03/13 09:27:14;;;;;;;12.57;0.80;;;;;;;;;;4968070;28;20131;-81
2022/03/13 09:29:40;;;;;;;7.38;0.98;;;;;;;;;;4967960;28;20458;-82
2022/03/13 09:32:06;;;;;;;5.43;0.68;;;;;;;;;;4964362;28;20193;-81
2022/03/13 09:34:32;;;;;;;5.70;1.13;;;;;;;;;;4968535;28;20058;-82
2022/03/13 09:36:59;;;;;;;10.32;0.75;;;;;;;;;;4972340;28;20031;-82
2022/03/13 09:39:25;;;;;;;6.47;0.60;;;;;;;;;;4967134;28;20047;-82
2022/03/13 09:41:52;;;;;;;5.60;0.30;;;;;;;;;;4971227;28;20114;-82
2022/03/13 09:44:18;;;;;;;6.07;0.75;;;;;;;;;;4968270;28;20537;-81
2022/03/13 09:46:44;;;;;;;6.72;0.60;;;;;;;;;;4967300;28;20070;-82
2022/03/13 09:49:10;;;;;;;6.22;0.57;;;;;;;;;;4968964;28;20030;-81
2022/03/13 09:51:35;;;;;;;8.23;0.95;;;;;;;;;;4970825;28;20123;-81
2022/03/13 09:54:02;;;;;;;10.15;0.70;;;;;;;;;;4972169;28;20023;-82
2022/03/13 09:56:29;;;;;;;4.82;0.55;;;;;;;;;;4978816;28;20039;-81
2022/03/13 09:58:55;;;;;;;8.70;0.40;;;;;;;;;;4980229;28;20166;-81
2022/03/13 10:01:20;;;;;;;9.82;0.88;;;;;;;;;;4970904;28;20117;-82
2022/03/13 10:03:46;;;;;;;5.15;0.35;;;;;;;;;;4967313;28;20403;-81
2022/03/13 10:06:11;;;;;;;7.85;1.08;;;;;;;;;;4964313;28;20121;-81
2022/03/13 10:08:37;;;;;;;8.85;1.73;;;;;;;;;;4951985;28;20033;-81
2022/03/13 10:11:03;;;;;;;7.47;0.40;;;;;;;;;;4964365;28;20587;-81
2022/03/13 10:13:43;;;;;;;7.32;0.60;;;;;;;;;;4965175;28;20042;-81
2022/03/13 10:16:15;;;;;;;9.85;0.63;;;;;;;;;;4974494;28;20026;-81
2022/03/13 10:18:41;;;;;;;7.72;0.75;;;;;;;;;;4970085;28;20114;-81
2022/03/13 10:21:17;;;;;;;11.25;0.63;;;;;;;;;;4980485;28;20054;-81
2022/03/13 10:23:43;;;;;;;13.68;0.55;;;;;;;;;;4971687;28;21644;-81
2022/03/13 10:26:09;;;;;;;7.80;0.77;;;;;;;;;;4967468;28;20061;-82
2022/03/13 10:28:40;;;;;;;4.60;0.60;;;;;;;;;;4979024;28;20060;-81
2022/03/13 10:31:11;;;;;;;7.72;0.70;;;;;;;;;;4966962;28;20034;-81
2022/03/13 10:33:43;;;;;;;7.93;0.70;;;;;;;;;;4988114;28;20031;-82
2022/03/13 10:36:10;;;;;;;6.35;0.50;;;;;;;;;;4990951;28;20118;-82
2022/03/13 10:38:36;;;;;;;11.35;0.52;;;;;;;;;;4971745;28;20710;-83
2022/03/13 10:41:08;;;;;;;8.60;0.77;;;;;;;;;;4972423;28;20030;-83
2022/03/13 10:43:46;;;;;;;11.02;1.10;;;;;;;;;;4973889;28;20125;-83
2022/03/13 10:46:28;;;;;;;10.05;1.08;;;;;;;;;;4956175;28;20050;-83
2022/03/13 10:48:54;;;;;;;13.55;0.90;;;;;;;;;;4964959;28;20070;-84
2022/03/13 10:51:44;;;;;;;8.52;0.77;;;;;;;;;;4976222;28;20050;-82
2022/03/13 10:54:27;;;;;;;4.70;0.70;;;;;;;;;;4968006;28;20031;-84
2022/03/13 10:57:08;;;;;;;9.77;0.70;;;;;;;;;;4973205;28;20449;-82
2022/03/13 10:59:34;;;;;;;13.43;1.05;;;;;;;;;;4966455;28;20030;-83
2022/03/13 11:02:16;;;;;;;11.90;0.50;;;;;;;;;;4973556;28;20147;-83
2022/03/13 11:04:50;;;;;;;15.15;1.13;;;;;;;;;;4976584;28;20069;-82
2022/03/13 11:07:16;;;;;;;8.18;0.60;;;;;;;;;;4974426;28;20306;-83
2022/03/13 11:09:42;;;;;;;9.45;0.55;;;;;;;;;;4982320;28;20046;-83
2022/03/13 11:12:17;;;;;;;11.18;0.73;;;;;;;;;;4971399;28;20085;-82
2022/03/13 11:14:50;;;;;;;4.45;0.38;;;;;;;;;;4974095;28;20391;-81
2022/03/13 11:17:22;;;;;;;8.25;0.88;;;;;;;;;;4988601;28;20046;-82
2022/03/13 11:19:50;;;;;;;6.07;0.40;;;;;;;;;;4968184;28;20562;-82
2022/03/13 11:22:20;;;;;;;8.35;0.55;;;;;;;;;;4990541;28;20030;-83
2022/03/13 11:24:46;;;;;;;3.88;0.32;;;;;;;;;;4954353;28;20035;-81
2022/03/13 11:27:12;;;;;;;2.50;0.30;;;;;;;;;;4984370;28;20042;-82
2022/03/13 11:29:44;;;;;;;4.28;1.10;;;;;;;;;;4970259;28;20035;-83
2022/03/13 11:32:32;;;;;;;2.33;0.30;;;;;;;;;;4989220;28;20019;-80
2022/03/13 11:35:13;;;;;;;4.40;0.40;;;;;;;;;;4989825;28;20121;-79
2022/03/13 11:37:51;;;;;;;2.75;0.20;;;;;;;;;;4966283;28;20093;-80
2022/03/13 11:40:36;;;;;;;5.20;0.40;;;;;;;;;;4967402;28;20041;-81
2022/03/13 11:43:06;;;;;;;3.05;0.43;;;;;;;;;;4970904;28;20487;-81
2022/03/13 11:45:34;;;;;;;3.67;0.47;;;;;;;;;;4976501;28;20086;-82
2022/03/13 11:48:12;;;;;;;6.30;0.52;;;;;;;;;;4982871;28;21661;-82
2022/03/13 11:50:51;;;;;;;6.15;0.43;;;;;;;;;;4968856;28;20070;-79
2022/03/13 11:53:40;;;;;;;2.45;0.20;;;;;;;;;;4984013;28;20031;-83
2022/03/13 11:56:09;;;;;;;2.60;0.38;;;;;;;;;;4966507;28;20075;-82
2022/03/13 11:58:38;;;;;;;4.93;0.55;;;;;;;;;;4972223;28;20031;-82
2022/03/13 12:01:07;;;;;;;5.38;0.52;;;;;;;;;;4969938;28;20046;-83
2022/03/13 12:03:33;;;;;;;11.65;0.77;;;;;;;;;;4958056;28;20555;-80
2022/03/13 12:05:59;;;;;;;2.83;0.30;;;;;;;;;;4964580;28;20035;-81
2022/03/13 12:09:04;;;;;;;7.95;0.63;;;;;;;;;;4963203;28;20426;-82
2022/03/13 12:11:38;;;;;;;7.25;0.75;;;;;;;;;;4980917;28;20458;-82
2022/03/13 12:14:12;;;;;;;8.68;0.73;;;;;;;;;;4970049;28;20030;-81
2022/03/13 12:16:39;;;;;;;6.72;0.57;;;;;;;;;;4980231;28;20030;-83
2022/03/13 12:19:06;;;;;;;4.97;0.68;;;;;;;;;;4972673;28;20403;-83
2022/03/13 12:21:32;;;;;;;6.90;0.40;;;;;;;;;;4974407;28;20335;-81
2022/03/13 12:24:16;;;;;;;5.00;0.40;;;;;;;;;;4967911;28;20038;-84
2022/03/13 12:26:46;;;;;;;2.90;0.40;;;;;;;;;;4967908;28;20030;-82
2022/03/13 12:29:17;;;;;;;2.65;0.52;;;;;;;;;;4965236;28;20743;-82
2022/03/13 12:31:53;;;;;;;5.22;0.35;;;;;;;;;;4973353;28;20345;-83
2022/03/13 12:34:26;;;;;;;7.53;0.68;;;;;;;;;;4974716;28;20113;-82
2022/03/13 12:36:53;;;;;;;7.45;0.63;;;;;;;;;;4979360;28;20038;-83
2022/03/13 12:39:20;;;;;;;8.80;0.75;;;;;;;;;;4984835;28;20032;-82
2022/03/13 12:41:54;;;;;;;6.10;0.93;;;;;;;;;;4968095;28;20121;-84
2022/03/13 12:44:22;;;;;;;9.15;0.82;;;;;;;;;;4978570;28;20388;-83
2022/03/13 12:46:51;;;;;;;8.95;0.65;;;;;;;;;;4960735;28;20141;-83
2022/03/13 12:49:24;;;;;;;8.93;0.77;;;;;;;;;;4967728;28;20031;-82
2022/03/13 12:51:52;;;;;;;8.32;1.10;;;;;;;;;;4981522;28;21184;-83
2022/03/13 12:54:21;;;;;;;3.13;0.40;;;;;;;;;;4983967;28;20043;-83
2022/03/13 12:57:12;;;;;;;6.22;0.60;;;;;;;;;;4977801;28;20050;-84
2022/03/13 12:59:41;;;;;;;5.43;0.50;;;;;;;;;;4945326;28;20039;-80
2022/03/13 13:02:15;;;;;;;4.07;0.47;;;;;;;;;;4974966;28;20045;-81
2022/03/13 13:04:46;;;;;;;3.20;0.60;;;;;;;;;;4972121;28;20399;-82
2022/03/13 13:07:12;;;;;;;5.07;0.65;;;;;;;;;;4972304;28;20034;-80
2022/03/13 13:09:42;;;;;;;6.38;0.73;;;;;;;;;;4972292;28;20101;-81
2022/03/13 13:12:09;;;;;;;4.38;0.40;;;;;;;;;;4967605;28;20510;-79
2022/03/13 13:14:35;;;;;;;3.33;0.55;;;;;;;;;;4968345;28;20028;-81
2022/03/13 13:17:07;;;;;;;1.15;0.35;;;;;;;;;;4977322;28;20026;-81
2022/03/13 13:19:41;;;;;;;1.77;0.40;;;;;;;;;;4970312;28;20038;-83
2022/03/13 13:22:07;;;;;;;3.05;0.38;;;;;;;;;;4973786;28;20039;-83
2022/03/13 13:24:35;;;;;;;4.57;0.47;;;;;;;;;;4969077;28;20507;-79
2022/03/13 13:27:09;;;;;;;2.05;0.43;;;;;;;;;;4986230;28;20102;-83
2022/03/13 13:29:40;;;;;;;2.97;0.57;;;;;;;;;;4984868;28;20047;-81
2022/03/13 13:32:46;;;;;;;2.63;0.43;;;;;;;;;;4983889;28;20022;-81
2022/03/13 13:35:13;;;;;;;4.47;0.63;;;;;;;;;;4957251;28;20050;-81
2022/03/13 13:37:59;;;;;;;1.40;0.20;;;;;;;;;;4968860;28;20405;-82
2022/03/13 13:40:30;;;;;;;2.00;0.30;;;;;;;;;;4972159;28;20049;-81
2022/03/13 13:42:58;;;;;;;3.75;0.30;;;;;;;;;;4986971;28;20034;-83
2022/03/13 13:45:23;;;;;;;2.78;0.20;;;;;;;;;;4952763;28;20037;-81
2022/03/13 13:47:49;;;;;;;3.45;0.30;;;;;;;;;;4964788;28;20051;-81
2022/03/13 13:50:23;;;;;;;6.57;0.40;;;;;;;;;;4979046;28;20128;-81
2022/03/13 13:53:02;;;;;;;3.70;0.35;;;;;;;;;;4983880;28;20035;-82
2022/03/13 13:55:38;;;;;;;4.10;0.73;;;;;;;;;;4956749;28;20031;-82
2022/03/13 13:58:23;;;;;;;4.63;1.23;;;;;;;;;;4968214;28;20042;-82
2022/03/13 14:00:49;;;;;;;3.47;0.40;;;;;;;;;;4963005;28;20456;-83
2022/03/13 14:03:15;;;;;;;3.97;0.95;;;;;;;;;;4969395;28;20496;-84
2022/03/13 14:05:42;;;;;;;4.25;0.65;;;;;;;;;;4973231;28;20081;-83
2022/03/13 14:08:08;;;;;;;1.00;0.13;;;;;;;;;;4953556;28;21007;-82
2022/03/13 14:10:34;;;;;;;2.42;0.20;;;;;;;;;;4975321;28;20041;-83
2022/03/13 14:13:03;;;;;;;2.00;0.40;;;;;;;;;;4971912;28;20027;-81
2022/03/13 14:15:30;;;;;;;1.20;0.20;;;;;;;;;;4970945;28;20031;-81
2022/03/13 14:17:56;;;;;;;1.38;0.10;;;;;;;;;;4967916;28;20383;-83
2022/03/13 14:20:22;;;;;;;0.88;0.20;;;;;;;;;;4987845;23;20041;-55
2022/03/13 14:22:48;;;;;;;1.13;0.20;;;;;;;;;;4983700;28;20034;-55
2022/03/13 14:25:14;;;;;;;1.30;0.28;;;;;;;;;;4979707;28;20641;-56
2022/03/13 14:27:40;;;;;;;2.92;0.40;;;;;;;;;;4977532;28;20115;-55
2022/03/13 14:30:08;;;;;;;1.83;0.30;;;;;;;;;;4982475;28;20077;-55
2022/03/13 14:32:36;;;;;;;0.98;0.20;;;;;;;;;;4978137;28;20041;-55
2022/03/13 14:37:39;;;;;;;0.40;0.10;;;;;;;;;;5019268;23;20065;-80
2022/03/13 14:40:05;;;;;;;0.98;0.22;;;;;;;;;;4988982;28;20022;-78
2022/03/13 14:42:31;;;;;;;4.93;0.50;;;;;;;;;;4983627;28;20125;-78